createdAt,value
2022-11-21T00:01:20.586Z,99280.84
2022-11-21T00:03:49.574Z,99282.63
2022-11-21T00:06:18.604Z,99298.97
2022-11-21T00:08:48.964Z,99299.03
2022-11-21T00:11:18.081Z,99296.47
2022-11-21T00:13:46.357Z,99296.47
2022-11-21T00:16:16.727Z,99292.22
2022-11-21T00:18:45.465Z,99293.13
2022-11-21T00:21:16.367Z,99292.31
2022-11-21T00:23:45.044Z,99290.63
2022-11-21T00:26:16.901Z,99293.25
2022-11-21T00:28:46.192Z,99283.88
2022-11-21T00:31:20.753Z,99282.19
2022-11-21T00:33:51.163Z,99270.22
2022-11-21T00:36:19.757Z,99264.25
2022-11-21T00:38:48.363Z,99274.56
2022-11-21T00:41:18.001Z,99274.63
2022-11-21T00:43:46.763Z,99266.16
2022-11-21T00:46:15.285Z,99268.78
2022-11-21T00:48:44.601Z,99282.53
2022-11-21T00:51:13.047Z,99257.78
2022-11-21T00:53:42.615Z,99262.06
2022-11-21T00:56:11.181Z,99260.34
2022-11-21T00:58:41.992Z,99271.50
2022-11-21T01:01:11.974Z,99274.13
2022-11-21T01:03:40.530Z,99264.72
2022-11-21T01:06:11.154Z,99257.09
2022-11-21T01:08:41.467Z,99263.03
2022-11-21T01:11:11.520Z,99243.38
2022-11-21T01:13:42.539Z,99251.91
2022-11-21T01:16:14.186Z,99241.66
2022-11-21T01:18:42.762Z,99244.25
2022-11-21T01:21:15.721Z,99240.88
2022-11-21T01:23:44.628Z,99239.22
2022-11-21T01:26:15.276Z,99235.03
2022-11-21T01:28:46.156Z,99240.22
2022-11-21T01:31:17.026Z,99244.50
2022-11-21T01:33:46.231Z,99236.00
2022-11-21T01:36:16.588Z,99233.47
2022-11-21T01:38:46.803Z,99227.50
2022-11-21T01:41:18.124Z,99224.94
2022-11-21T01:43:48.911Z,99224.97
2022-11-21T01:46:19.358Z,99219.84
2022-11-21T01:48:54.058Z,99227.53
2022-11-21T01:51:27.479Z,99231.81
2022-11-21T01:53:59.963Z,99235.25
2022-11-21T01:56:30.547Z,99229.25
2022-11-21T01:59:04.958Z,99224.97
2022-11-21T02:01:36.326Z,99219.88
2022-11-21T02:04:07.909Z,99225.06
2022-11-21T02:06:37.995Z,99229.34
2022-11-21T02:09:07.252Z,99230.19
2022-11-21T02:12:33.627Z,99230.19
2022-11-21T02:15:03.492Z,99227.66
2022-11-21T02:17:33.916Z,99237.06
2022-11-21T02:20:04.706Z,99237.09
2022-11-21T02:22:41.629Z,99246.50
2022-11-21T02:25:14.449Z,99241.34
2022-11-21T02:27:43.171Z,99243.06
2022-11-21T02:30:13.476Z,99249.91
2022-11-21T02:32:46.898Z,99243.09
2022-11-21T02:35:16.539Z,99237.13
2022-11-21T02:37:48.308Z,99231.13
2022-11-21T02:40:22.359Z,99233.72
2022-11-21T02:43:00.674Z,99230.31
2022-11-21T02:45:33.645Z,99243.94
2022-11-21T02:48:04.305Z,99251.63
2022-11-21T02:50:35.297Z,99246.50
2022-11-21T02:53:04.546Z,99247.38
2022-11-21T02:55:35.169Z,99246.50
2022-11-21T02:58:05.506Z,99249.91
2022-11-21T03:00:36.907Z,99260.16
2022-11-21T03:03:05.506Z,99254.19
2022-11-21T03:05:34.475Z,99254.19
2022-11-21T03:08:02.921Z,99247.38
2022-11-21T03:10:31.514Z,99263.59
2022-11-21T03:13:04.727Z,99268.69
2022-11-21T03:15:35.711Z,99267.84
2022-11-21T03:18:05.046Z,99266.13
2022-11-21T03:20:35.655Z,99252.47
2022-11-21T03:23:04.422Z,99266.13
2022-11-21T03:25:32.801Z,99268.69
2022-11-21T03:28:02.585Z,99273.81
2022-11-21T03:30:31.039Z,99272.94
2022-11-21T03:33:00.508Z,99274.66
2022-11-21T03:35:28.850Z,99271.22
2022-11-21T03:37:57.150Z,99271.25
2022-11-21T03:40:25.929Z,99276.34
2022-11-21T03:42:54.400Z,99278.03
2022-11-21T03:45:24.250Z,99276.31
2022-11-21T03:47:53.134Z,99279.75
2022-11-21T03:50:21.851Z,99288.25
2022-11-21T03:52:50.256Z,99278.88
2022-11-21T03:55:19.726Z,99266.94
2022-11-21T03:57:48.113Z,99274.59
2022-11-21T04:00:17.731Z,99271.19
2022-11-21T04:02:47.493Z,99272.88
2022-11-21T04:05:16.899Z,99280.53
2022-11-21T04:07:47.743Z,99278.00
2022-11-21T04:10:16.830Z,99270.31
2022-11-21T04:12:46.824Z,99276.25
2022-11-21T04:15:15.251Z,99273.69
2022-11-21T04:17:43.835Z,99275.41
2022-11-21T04:20:13.818Z,99269.41
2022-11-21T04:22:42.337Z,99266.03
2022-11-21T04:25:11.271Z,99257.50
2022-11-21T04:27:39.667Z,99266.91
2022-11-21T04:30:09.050Z,99260.09
2022-11-21T04:32:37.517Z,99268.59
2022-11-21T04:35:06.760Z,99264.34
2022-11-21T04:37:36.596Z,99260.00
2022-11-21T04:40:06.079Z,99261.66
2022-11-21T04:42:34.396Z,99257.34
2022-11-21T04:45:03.272Z,99258.97
2022-11-21T04:47:31.754Z,99258.94
2022-11-21T04:50:00.246Z,99261.44
2022-11-21T04:52:28.779Z,99251.22
2022-11-21T04:54:58.522Z,99248.66
2022-11-21T04:57:29.431Z,99245.25
2022-11-21T04:59:58.135Z,99248.66
2022-11-21T05:02:26.408Z,99253.78
2022-11-21T05:04:55.938Z,99250.34
2022-11-21T05:07:24.393Z,99242.69
2022-11-21T05:09:52.928Z,99246.09
2022-11-21T05:12:40.415Z,99244.41
2022-11-21T05:15:09.272Z,99233.38
2022-11-21T05:17:37.878Z,99231.69
2022-11-21T05:20:07.425Z,99235.09
2022-11-21T05:22:36.291Z,99227.44
2022-11-21T05:25:05.616Z,99235.13
2022-11-21T05:27:35.429Z,99228.31
2022-11-21T05:30:03.862Z,99225.69
2022-11-21T05:32:32.416Z,99229.94
2022-11-21T05:35:00.887Z,99235.88
2022-11-21T05:37:29.243Z,99229.09
2022-11-21T05:39:57.863Z,99223.97
2022-11-21T05:42:40.133Z,99223.09
2022-11-21T05:45:11.157Z,99229.09
2022-11-21T05:47:39.867Z,99236.69
2022-11-21T05:50:09.728Z,99237.56
2022-11-21T05:52:48.459Z,99233.31
2022-11-21T05:55:17.177Z,99229.88
2022-11-21T05:57:45.685Z,99236.69
2022-11-21T06:00:16.978Z,99237.56
2022-11-21T06:03:02.775Z,99239.25
2022-11-21T06:05:31.736Z,99241.81
2022-11-21T06:08:00.109Z,99246.09
2022-11-21T06:10:28.936Z,99246.94
2022-11-21T06:13:01.046Z,99245.25
2022-11-21T06:15:31.182Z,99233.31
2022-11-21T06:18:01.938Z,99231.59
2022-11-21T06:20:30.619Z,99225.63
2022-11-21T06:22:59.181Z,99227.34
2022-11-21T06:25:27.763Z,99225.63
2022-11-21T06:27:56.632Z,99218.00
2022-11-21T06:30:26.131Z,99203.56
2022-11-21T06:32:56.218Z,99208.66
2022-11-21T06:35:24.902Z,99218.00
2022-11-21T06:37:53.960Z,99216.31
2022-11-21T06:40:22.398Z,99219.75
2022-11-21T06:42:50.956Z,99221.50
2022-11-21T06:45:19.691Z,99229.22
2022-11-21T06:47:48.663Z,99226.69
2022-11-21T06:50:18.971Z,99223.31
2022-11-21T06:52:47.345Z,99217.38
2022-11-21T06:55:16.088Z,99220.81
2022-11-21T06:57:45.043Z,99225.91
2022-11-21T07:00:14.997Z,99222.53
2022-11-21T07:02:43.394Z,99225.09
2022-11-21T07:05:11.901Z,99220.84
2022-11-21T07:07:41.756Z,99223.41
2022-11-21T07:10:11.350Z,99211.47
2022-11-21T07:12:57.085Z,99214.88
2022-11-21T07:15:25.972Z,99211.47
2022-11-21T07:17:54.577Z,99214.06
2022-11-21T07:20:24.166Z,99204.66
2022-11-21T07:22:56.824Z,99203.84
2022-11-21T07:25:25.634Z,99208.97
2022-11-21T07:27:53.996Z,99206.41
2022-11-21T07:30:23.517Z,99203.84
2022-11-21T07:32:56.661Z,99197.91
2022-11-21T07:35:25.329Z,99203.00
2022-11-21T07:37:54.201Z,99208.13
2022-11-21T07:40:24.415Z,99205.56
2022-11-21T07:42:53.713Z,99203.88
2022-11-21T07:45:24.629Z,99204.72
2022-11-21T07:47:59.093Z,99203.81
2022-11-21T07:50:27.942Z,99206.38
2022-11-21T07:52:59.411Z,99199.53
2022-11-21T07:55:30.415Z,99195.22
2022-11-21T07:58:00.757Z,99196.88
2022-11-21T08:00:31.264Z,99195.16
2022-11-21T08:03:00.570Z,99190.88
2022-11-21T08:05:29.087Z,99193.41
2022-11-21T08:07:57.563Z,99183.13
2022-11-21T08:10:25.963Z,99175.41
2022-11-21T08:12:56.029Z,99167.72
2022-11-21T08:15:25.462Z,99168.50
2022-11-21T08:17:54.190Z,99165.84
2022-11-21T08:20:22.494Z,99164.91
2022-11-21T08:22:51.016Z,99167.41
2022-11-21T08:25:19.529Z,99169.91
2022-11-21T08:27:48.260Z,99166.41
2022-11-21T08:30:18.403Z,99161.25
2022-11-21T08:32:47.000Z,99150.03
2022-11-21T08:35:15.936Z,99158.47
2022-11-21T08:37:44.632Z,99159.25
2022-11-21T08:40:13.540Z,99152.31
2022-11-21T08:42:42.202Z,99153.94
2022-11-21T08:45:11.754Z,99147.03
2022-11-21T08:47:44.148Z,99151.19
2022-11-21T08:50:13.234Z,99152.78
2022-11-21T08:52:41.737Z,99142.41
2022-11-21T08:55:11.146Z,99144.84
2022-11-21T08:57:42.039Z,99142.09
2022-11-21T09:00:13.670Z,99144.47
2022-11-21T09:02:43.940Z,99140.09
2022-11-21T09:05:13.857Z,99139.19
2022-11-21T09:07:42.676Z,99139.06
2022-11-21T09:10:11.920Z,99136.38
2022-11-21T09:12:40.666Z,99135.41
2022-11-21T09:15:29.459Z,99137.84
2022-11-21T09:18:07.799Z,99138.50
2022-11-21T09:20:40.944Z,99142.53
2022-11-21T09:23:11.502Z,99134.88
2022-11-21T09:25:42.517Z,99135.56
2022-11-21T09:28:14.122Z,99143.31
2022-11-21T09:30:43.855Z,99144.38
2022-11-21T09:33:15.010Z,99141.97
2022-11-21T09:35:44.759Z,99142.84
2022-11-21T09:38:13.816Z,99146.19
2022-11-21T09:40:46.519Z,99143.53
2022-11-21T09:43:45.241Z,99144.28
2022-11-21T09:46:16.897Z,99143.28
2022-11-21T09:48:58.763Z,99149.19
2022-11-21T09:51:30.697Z,99135.06
2022-11-21T09:54:04.077Z,99138.97
2022-11-21T09:56:38.442Z,99136.09
2022-11-21T09:59:21.375Z,99140.47
2022-11-21T10:01:50.246Z,99134.59
2022-11-21T10:04:20.722Z,99138.09
2022-11-21T10:06:59.127Z,99134.53
2022-11-21T10:09:42.769Z,99137.53
2022-11-21T10:12:38.556Z,99128.50
2022-11-21T10:15:24.988Z,99125.25
2022-11-21T10:18:21.657Z,99124.44
2022-11-21T10:21:01.549Z,99131.56
2022-11-21T10:24:05.401Z,99131.06
2022-11-21T10:26:43.450Z,99132.69
2022-11-21T10:29:24.035Z,99139.53
2022-11-21T10:31:57.701Z,99141.31
2022-11-21T10:34:31.891Z,99136.31
2022-11-21T10:37:12.413Z,99137.44
2022-11-21T10:39:45.373Z,99137.53
2022-11-21T10:42:28.937Z,99146.28
2022-11-21T10:45:20.564Z,99146.53
2022-11-21T10:47:50.758Z,99142.44
2022-11-21T10:50:36.982Z,99138.16
2022-11-21T10:53:38.519Z,99130.41
2022-11-21T10:56:10.712Z,99124.28
2022-11-21T10:58:45.902Z,99124.19
2022-11-21T11:01:26.671Z,99122.41
2022-11-21T11:04:43.737Z,99119.91
2022-11-21T11:07:24.899Z,99122.59
2022-11-21T11:10:15.251Z,99114.88
2022-11-21T11:13:05.127Z,99122.41
2022-11-21T11:16:04.951Z,99122.66
2022-11-21T11:18:36.439Z,99108.09
2022-11-21T11:21:16.002Z,99117.13
2022-11-21T11:23:46.885Z,99115.31
2022-11-21T11:26:26.540Z,99104.88
2022-11-21T11:29:09.858Z,99107.38
2022-11-21T11:31:43.302Z,99101.31
2022-11-21T11:34:17.144Z,99100.88
2022-11-21T11:36:56.314Z,99095.09
2022-11-21T11:39:39.806Z,99087.59
2022-11-21T11:42:51.517Z,99089.97
2022-11-21T11:45:53.996Z,99098.97
2022-11-21T11:48:23.579Z,99085.50
2022-11-21T11:50:56.562Z,99085.81
2022-11-21T11:53:31.149Z,99080.25
2022-11-21T11:56:06.639Z,99076.31
2022-11-21T11:58:43.555Z,99074.69
2022-11-21T12:01:16.177Z,99081.50
2022-11-21T12:03:54.957Z,99070.03
2022-11-21T12:07:04.120Z,99061.25
2022-11-21T12:09:23.356Z,99063.56
2022-11-21T12:12:08.747Z,99055.69
2022-11-21T12:15:15.633Z,99049.53
2022-11-21T12:17:54.277Z,99051.13
2022-11-21T12:20:26.240Z,99044.13
2022-11-21T12:22:56.699Z,99038.94
2022-11-21T12:25:31.620Z,99040.84
2022-11-21T12:28:01.123Z,99039.47
2022-11-21T12:31:04.970Z,99033.50
2022-11-21T12:33:42.558Z,99038.91
2022-11-21T12:36:30.224Z,99031.22
2022-11-21T12:39:45.553Z,99031.38
2022-11-21T12:42:41.598Z,99025.19
2022-11-21T12:45:27.592Z,99025.81
2022-11-21T12:48:52.587Z,99024.75
2022-11-21T12:51:58.396Z,99019.47
2022-11-21T12:55:02.641Z,99021.13
2022-11-21T12:58:05.021Z,99027.19
2022-11-21T13:00:44.648Z,99018.44
2022-11-21T13:03:35.185Z,99018.00
2022-11-21T13:06:07.044Z,99007.47
2022-11-21T13:08:39.097Z,99014.38
2022-11-21T13:11:30.069Z,99009.59
2022-11-21T13:14:06.407Z,99001.47
2022-11-21T13:16:39.815Z,98999.31
2022-11-21T13:19:22.043Z,99002.31
2022-11-21T13:21:55.237Z,98996.69
2022-11-21T13:25:00.613Z,99001.25
2022-11-21T13:27:39.119Z,98996.34
2022-11-21T13:30:37.827Z,98988.78
2022-11-21T13:33:14.244Z,98983.81
2022-11-21T13:36:09.415Z,98990.88
2022-11-21T13:38:53.121Z,98991.03
2022-11-21T13:42:18.633Z,98991.22
2022-11-21T13:44:49.401Z,98993.06
2022-11-21T13:47:57.101Z,98997.56
2022-11-21T13:51:19.515Z,98999.44
2022-11-21T13:54:11.583Z,99000.59
2022-11-21T13:56:54.601Z,99010.34
2022-11-21T13:59:51.772Z,99008.78
2022-11-21T14:02:48.177Z,99011.47
2022-11-21T14:05:33.906Z,99009.81
2022-11-21T14:08:22.865Z,99011.69
2022-11-21T14:10:58.372Z,99001.44
2022-11-21T14:13:35.583Z,99004.06
2022-11-21T14:16:20.050Z,99008.56
2022-11-21T14:18:53.065Z,99008.75
2022-11-21T14:21:27.541Z,98999.53
2022-11-21T14:24:06.030Z,98997.97
2022-11-21T14:26:42.484Z,98993.06
2022-11-21T14:29:23.340Z,98998.38
2022-11-21T14:31:56.096Z,99014.81
2022-11-21T14:34:36.204Z,99005.47
2022-11-21T14:37:07.444Z,99007.31
2022-11-21T14:39:44.803Z,99005.84
2022-11-21T14:42:21.290Z,99010.16
2022-11-21T14:45:10.545Z,99011.81
2022-11-21T14:47:48.828Z,99004.03
2022-11-21T14:50:32.389Z,99003.06
2022-11-21T14:53:05.573Z,98998.63
2022-11-21T14:55:37.877Z,99008.88
2022-11-21T14:58:10.451Z,99010.50
2022-11-21T15:03:29.239Z,99001.72
2022-11-21T15:06:05.888Z,99006.00
2022-11-21T15:11:27.230Z,99021.66
2022-11-21T15:14:17.124Z,99008.84
2022-11-21T15:16:49.200Z,99025.31
2022-11-21T15:19:25.034Z,99016.72
2022-11-21T15:21:55.555Z,99021.00
2022-11-21T15:24:40.628Z,99021.06
2022-11-21T15:27:35.098Z,99027.97
2022-11-21T15:30:22.551Z,99018.63
2022-11-21T15:33:11.758Z,99027.22
2022-11-21T15:35:51.086Z,99020.31
2022-11-21T15:38:25.823Z,99015.09
2022-11-21T15:41:23.681Z,99016.75
2022-11-21T15:43:54.651Z,99021.94
2022-11-21T15:46:25.972Z,99017.69
2022-11-21T15:48:56.323Z,99020.25
2022-11-21T15:51:59.546Z,99011.59
2022-11-21T15:54:18.037Z,99008.03
2022-11-21T15:56:47.726Z,99013.13
2022-11-21T15:59:17.516Z,99006.31
2022-11-21T16:01:47.433Z,99005.41
2022-11-21T16:04:20.954Z,99010.56
2022-11-21T16:06:52.838Z,99016.66
2022-11-21T16:09:21.709Z,99008.94
2022-11-21T16:11:50.405Z,99011.56
2022-11-21T16:14:19.680Z,99008.16
2022-11-21T16:16:50.110Z,99005.56
2022-11-21T16:19:18.946Z,99002.09
2022-11-21T16:21:48.449Z,99003.75
2022-11-21T16:24:18.079Z,99004.50
2022-11-21T16:26:47.059Z,99003.63
2022-11-21T16:29:15.693Z,99001.03
2022-11-21T16:31:44.422Z,99005.41
2022-11-21T16:34:14.708Z,99004.59
2022-11-21T16:36:43.965Z,99001.19
2022-11-21T16:39:17.748Z,98999.47
2022-11-21T16:41:49.275Z,99008.09
2022-11-21T16:44:21.065Z,99008.19
2022-11-21T16:46:51.853Z,99003.94
2022-11-21T16:49:22.007Z,99000.47
2022-11-21T16:51:50.905Z,98998.69
2022-11-21T16:54:19.471Z,98993.53
2022-11-21T16:56:48.227Z,98995.25
2022-11-21T16:59:17.118Z,98996.00
2022-11-21T17:01:49.280Z,99000.25
2022-11-21T17:04:18.656Z,98988.13
2022-11-21T17:06:49.327Z,98987.28
2022-11-21T17:09:18.860Z,98989.78
2022-11-21T17:11:47.486Z,98988.84
2022-11-21T17:14:17.315Z,98995.66
2022-11-21T17:16:46.265Z,98991.28
2022-11-21T17:19:16.595Z,98991.13
2022-11-21T17:21:45.040Z,98994.50
2022-11-21T17:24:15.771Z,98997.84
2022-11-21T17:26:45.032Z,98999.59
2022-11-21T17:29:13.555Z,98999.59
2022-11-21T17:31:42.979Z,98998.81
2022-11-21T17:34:11.860Z,99003.97
2022-11-21T17:36:40.666Z,99001.38
2022-11-21T17:39:09.170Z,99006.56
2022-11-21T17:41:39.757Z,99003.94
2022-11-21T17:44:08.714Z,99004.78
2022-11-21T17:46:37.230Z,98994.41
2022-11-21T17:49:06.407Z,98998.72
2022-11-21T17:51:35.547Z,99009.94
2022-11-21T17:54:04.940Z,99003.06
2022-11-21T17:56:35.423Z,98997.91
2022-11-21T17:59:07.726Z,99000.47
2022-11-21T18:01:37.468Z,99000.44
2022-11-21T18:04:14.713Z,98998.63
2022-11-21T18:06:43.980Z,99002.16
2022-11-21T18:09:13.373Z,99003.00
2022-11-21T18:11:42.061Z,99002.16
2022-11-21T18:14:13.818Z,99006.47
2022-11-21T18:16:51.144Z,99008.22
2022-11-21T18:19:22.410Z,98993.59
2022-11-21T18:21:51.996Z,98997.88
2022-11-21T18:24:20.858Z,98996.13
2022-11-21T18:26:49.640Z,98989.25
2022-11-21T18:29:35.850Z,98996.13
2022-11-21T18:32:06.195Z,98996.97
2022-11-21T18:34:34.618Z,98990.91
2022-11-21T18:37:03.258Z,98996.06
2022-11-21T18:39:32.182Z,98994.31
2022-11-21T18:42:01.105Z,98996.09
2022-11-21T18:44:31.864Z,98992.69
2022-11-21T18:47:00.391Z,98994.38
2022-11-21T18:49:29.076Z,98992.69
2022-11-21T18:51:58.070Z,98990.09
2022-11-21T18:54:26.844Z,98985.78
2022-11-21T18:56:57.213Z,98988.44
2022-11-21T18:59:26.384Z,98990.03
2022-11-21T19:01:56.940Z,98988.34
2022-11-21T19:04:26.018Z,98993.47
2022-11-21T19:06:54.571Z,98993.50
2022-11-21T19:09:28.070Z,98995.25
2022-11-21T19:11:59.704Z,98996.13
2022-11-21T19:14:28.508Z,99001.28
2022-11-21T19:16:58.770Z,98997.00
2022-11-21T19:19:34.668Z,99002.13
2022-11-21T19:22:06.829Z,99004.81
2022-11-21T19:24:35.551Z,99006.47
2022-11-21T19:27:04.209Z,99004.78
2022-11-21T19:29:33.512Z,99006.38
2022-11-21T19:32:03.814Z,99010.66
2022-11-21T19:34:32.571Z,99013.25
2022-11-21T19:37:01.271Z,99020.16
2022-11-21T19:39:31.502Z,99017.63
2022-11-21T19:42:00.311Z,99018.44
2022-11-21T19:44:29.050Z,99017.47
2022-11-21T19:46:57.745Z,99015.72
2022-11-21T19:49:28.197Z,99011.47
2022-11-21T19:51:56.977Z,99014.94
2022-11-21T19:54:25.689Z,99013.25
2022-11-21T19:56:54.714Z,99020.88
2022-11-21T19:59:23.393Z,99012.31
2022-11-21T20:01:53.299Z,99017.47
2022-11-21T20:04:22.038Z,99016.66
2022-11-21T20:06:53.018Z,99017.63
2022-11-21T20:09:23.126Z,99023.69
2022-11-21T20:11:53.852Z,99017.69
2022-11-21T20:14:23.162Z,99016.78
2022-11-21T20:16:54.038Z,99027.19
2022-11-21T20:19:25.299Z,99027.22
2022-11-21T20:21:55.276Z,99025.44
2022-11-21T20:24:23.861Z,99022.84
2022-11-21T20:26:53.644Z,99027.19
2022-11-21T20:29:22.209Z,99028.91
2022-11-21T20:31:50.901Z,99033.19
2022-11-21T20:34:19.557Z,99027.13
2022-11-21T20:36:48.456Z,99032.28
2022-11-21T20:39:20.556Z,99034.88
2022-11-21T20:41:49.574Z,99030.56
2022-11-21T20:47:11.163Z,99036.59
2022-11-21T20:49:40.559Z,99034.84
2022-11-21T20:54:59.566Z,99034.88
2022-11-21T20:57:29.516Z,99045.22
2022-11-21T20:59:59.121Z,99051.22
2022-11-21T21:02:27.840Z,99037.44
2022-11-21T21:04:56.218Z,99046.88
2022-11-21T21:07:24.833Z,99032.22
2022-11-21T21:09:55.978Z,99031.44
2022-11-21T21:12:27.646Z,99025.38
2022-11-21T21:14:56.486Z,99034.81
2022-11-21T21:17:25.131Z,99026.25
2022-11-21T21:19:54.106Z,99028.88
2022-11-21T21:22:23.024Z,99028.88
2022-11-21T21:24:52.118Z,99028.09
2022-11-21T21:27:20.980Z,99038.41
2022-11-21T21:29:51.233Z,99036.84
2022-11-21T21:32:20.048Z,99030.78
2022-11-21T21:34:48.855Z,99029.03
2022-11-21T21:37:19.183Z,99030.75
2022-11-21T21:39:48.122Z,99036.72
2022-11-21T21:42:17.069Z,99037.63
2022-11-21T21:44:46.372Z,99039.31
2022-11-21T21:47:17.580Z,99042.75
2022-11-21T21:49:46.487Z,99041.06
2022-11-21T21:52:15.598Z,99044.50
2022-11-21T21:54:45.603Z,99045.31
2022-11-21T21:57:17.665Z,99041.06
2022-11-21T21:59:46.587Z,99042.78
2022-11-21T22:02:17.080Z,99043.66
2022-11-21T22:04:50.604Z,99046.28
2022-11-21T22:07:20.975Z,99040.41
2022-11-21T22:09:50.612Z,99044.72
2022-11-21T22:12:19.422Z,99041.34
2022-11-21T22:14:48.948Z,99048.19
2022-11-21T22:17:18.832Z,99035.22
2022-11-21T22:19:48.993Z,99030.84
2022-11-21T22:22:18.026Z,99040.28
2022-11-21T22:24:46.809Z,99043.72
2022-11-21T22:27:16.608Z,99042.78
2022-11-21T22:29:45.711Z,99045.38
2022-11-21T22:32:19.498Z,99042.78
2022-11-21T22:34:50.086Z,99035.84
2022-11-21T22:37:19.237Z,99036.69
2022-11-21T22:39:48.241Z,99031.50
2022-11-21T22:42:16.955Z,99027.22
2022-11-21T22:44:46.017Z,99031.47
2022-11-21T22:47:15.417Z,99030.56
2022-11-21T22:49:45.129Z,99032.28
2022-11-21T22:52:15.090Z,99028.03
2022-11-21T22:54:43.923Z,99029.72
2022-11-21T22:57:13.544Z,99030.59
2022-11-21T22:59:42.650Z,99040.03
2022-11-21T23:02:11.572Z,99038.28
2022-11-21T23:04:40.193Z,99034.81
2022-11-21T23:07:09.261Z,99036.50
2022-11-21T23:09:39.797Z,99036.53
2022-11-21T23:12:08.818Z,99041.78
2022-11-21T23:14:38.595Z,99040.94
2022-11-21T23:17:07.556Z,99045.28
2022-11-21T23:19:36.594Z,99045.28
2022-11-21T23:22:05.664Z,99048.66
2022-11-21T23:24:35.299Z,99056.34
2022-11-21T23:27:06.568Z,99052.00
2022-11-21T23:29:36.137Z,99051.97
2022-11-21T23:32:06.414Z,99038.16
2022-11-21T23:34:35.300Z,99040.72
2022-11-21T23:37:04.033Z,99032.94
2022-11-21T23:39:32.911Z,99029.53
2022-11-21T23:42:01.580Z,99030.38
2022-11-21T23:44:32.428Z,99033.84
2022-11-21T23:47:01.734Z,99036.41
2022-11-21T23:49:30.888Z,99037.28
2022-11-21T23:51:59.912Z,99037.31
2022-11-21T23:54:29.171Z,99039.97
2022-11-21T23:56:57.802Z,99046.03
2022-11-21T23:59:26.944Z,99035.75
